Time;durP1;ratioP1;P1;durP2;ratioP2;P2;SDS_P1;SDS_P2;PMS_P1;PMS_P2;Temp;Humidity;BMP_temperature;BMP_pressure;BME280_temperature;BME280_humidity;BME280_pressure;Samples;Min_cycle;Max_cycle;Signal;HPM_P1;HPM_P2
2022/07/27 00:00:51;;;;;;;4.38;1.48;;;;;;;;;;4986536;28;92520;-70
2022/07/27 00:03:18;;;;;;;3.80;1.10;;;;;;;;;;4997225;28;93065;-70
2022/07/27 00:05:44;;;;;;;10.32;1.50;;;;;;;;;;4991563;28;94859;-69
2022/07/27 00:08:10;;;;;;;5.85;1.38;;;;;;;;;;4994438;28;94282;-70
2022/07/27 00:10:37;;;;;;;8.27;1.35;;;;;;;;;;4993815;28;94307;-70
2022/07/27 00:13:04;;;;;;;8.43;1.30;;;;;;;;;;4994123;28;92300;-70
2022/07/27 00:15:32;;;;;;;5.00;1.42;;;;;;;;;;4994305;28;93012;-70
2022/07/27 00:17:59;;;;;;;2.17;1.08;;;;;;;;;;4986322;28;93455;-70
2022/07/27 00:20:27;;;;;;;4.97;1.45;;;;;;;;;;4994748;27;92513;-70
2022/07/27 00:22:54;;;;;;;5.63;1.45;;;;;;;;;;4994726;28;91772;-70
2022/07/27 00:25:21;;;;;;;2.40;1.45;;;;;;;;;;4996642;28;92366;-70
2022/07/27 00:27:48;;;;;;;4.63;1.25;;;;;;;;;;4994128;28;92355;-70
2022/07/27 00:30:15;;;;;;;8.57;1.73;;;;;;;;;;4992135;28;96317;-70
2022/07/27 00:32:41;;;;;;;5.93;1.73;;;;;;;;;;4993253;28;92749;-70
2022/07/27 00:35:08;;;;;;;4.10;1.25;;;;;;;;;;4994663;28;92862;-70
2022/07/27 00:37:34;;;;;;;10.82;1.30;;;;;;;;;;4993492;28;93302;-70
2022/07/27 00:40:01;;;;;;;7.07;1.83;;;;;;;;;;4994386;28;92899;-70
2022/07/27 00:42:30;;;;;;;1.25;1.10;;;;;;;;;;4997579;28;92940;-70
2022/07/27 00:44:57;;;;;;;6.78;1.63;;;;;;;;;;4996865;28;93418;-72
2022/07/27 00:47:24;;;;;;;4.75;1.13;;;;;;;;;;4999621;28;91855;-70
2022/07/27 00:49:51;;;;;;;6.63;1.60;;;;;;;;;;4997407;28;93609;-70
2022/07/27 00:52:18;;;;;;;5.05;1.63;;;;;;;;;;4997143;28;92403;-70
2022/07/27 00:54:44;;;;;;;4.20;1.48;;;;;;;;;;4994393;28;96202;-70
2022/07/27 00:57:12;;;;;;;5.30;1.13;;;;;;;;;;4989313;28;93685;-70
2022/07/27 00:59:38;;;;;;;8.10;1.40;;;;;;;;;;4997050;28;92537;-69
2022/07/27 01:02:06;;;;;;;5.35;1.42;;;;;;;;;;4996472;28;94108;-70
2022/07/27 01:04:37;;;;;;;9.45;1.50;;;;;;;;;;4996840;28;94278;-69
2022/07/27 01:07:05;;;;;;;3.78;1.30;;;;;;;;;;4996833;28;93149;-69
2022/07/27 01:12:20;;;;;;;5.15;1.40;;;;;;;;;;4989740;28;92989;-69
2022/07/27 01:14:48;;;;;;;5.55;1.88;;;;;;;;;;4995807;28;92381;-69
2022/07/27 01:17:14;;;;;;;7.80;1.40;;;;;;;;;;4996765;28;93362;-70
2022/07/27 01:19:42;;;;;;;7.18;1.70;;;;;;;;;;4995683;28;94857;-70
2022/07/27 01:22:09;;;;;;;8.27;1.40;;;;;;;;;;4995703;28;95359;-70
2022/07/27 01:24:35;;;;;;;7.78;1.30;;;;;;;;;;4996555;28;93526;-70
2022/07/27 01:27:03;;;;;;;2.08;1.30;;;;;;;;;;4996815;28;92489;-70
2022/07/27 01:29:30;;;;;;;13.45;2.45;;;;;;;;;;4996252;28;93895;-70
2022/07/27 01:31:58;;;;;;;3.95;1.40;;;;;;;;;;4999589;28;93253;-70
2022/07/27 01:34:25;;;;;;;8.10;1.50;;;;;;;;;;4989622;28;93270;-70
2022/07/27 01:36:51;;;;;;;2.70;1.30;;;;;;;;;;4995550;28;92634;-70
2022/07/27 01:39:18;;;;;;;6.43;1.50;;;;;;;;;;4996044;28;92494;-70
2022/07/27 01:41:45;;;;;;;3.50;1.40;;;;;;;;;;4996316;28;93250;-70
2022/07/27 01:44:11;;;;;;;7.75;1.80;;;;;;;;;;4994133;28;95727;-70
2022/07/27 01:46:38;;;;;;;5.00;1.60;;;;;;;;;;4995650;28;92628;-69
2022/07/27 01:49:04;;;;;;;7.75;1.70;;;;;;;;;;4996449;28;92835;-70
2022/07/27 01:51:31;;;;;;;3.67;1.30;;;;;;;;;;4994317;28;93135;-70
2022/07/27 01:53:57;;;;;;;5.55;1.38;;;;;;;;;;4999068;28;92462;-69
2022/07/27 01:56:24;;;;;;;3.42;1.17;;;;;;;;;;4995927;28;93804;-70
2022/07/27 01:58:50;;;;;;;10.00;2.13;;;;;;;;;;4996448;27;92542;-70
2022/07/27 02:01:16;;;;;;;3.22;1.20;;;;;;;;;;4996617;28;93908;-70
2022/07/27 02:03:43;;;;;;;6.25;1.50;;;;;;;;;;4996977;27;93359;-70
2022/07/27 02:06:09;;;;;;;7.25;1.55;;;;;;;;;;4995083;28;94190;-69
2022/07/27 02:08:36;;;;;;;3.67;1.30;;;;;;;;;;4994489;28;94774;-69
2022/07/27 02:13:47;;;;;;;5.28;1.55;;;;;;;;;;4999348;28;92473;-70
2022/07/27 02:16:14;;;;;;;4.00;1.50;;;;;;;;;;4995558;28;92494;-69
2022/07/27 02:18:43;;;;;;;2.70;1.70;;;;;;;;;;4995158;28;92701;-70
2022/07/27 02:21:09;;;;;;;4.22;1.40;;;;;;;;;;4996094;28;93356;-70
2022/07/27 02:23:36;;;;;;;4.70;1.50;;;;;;;;;;4996909;27;93499;-70
2022/07/27 02:26:03;;;;;;;6.82;1.80;;;;;;;;;;4995906;28;91686;-70
2022/07/27 02:28:30;;;;;;;5.28;1.63;;;;;;;;;;4996509;28;93440;-70
2022/07/27 02:30:57;;;;;;;6.75;1.77;;;;;;;;;;4995447;28;92266;-70
2022/07/27 02:33:23;;;;;;;5.32;1.38;;;;;;;;;;4993238;28;94842;-70
2022/07/27 02:35:49;;;;;;;5.97;1.77;;;;;;;;;;4997988;28;95431;-70
2022/07/27 02:38:16;;;;;;;5.22;1.70;;;;;;;;;;4995531;28;92515;-69
2022/07/27 02:40:42;;;;;;;7.32;1.35;;;;;;;;;;4994919;28;93965;-70
2022/07/27 02:43:08;;;;;;;5.90;1.75;;;;;;;;;;4995455;28;94196;-69
2022/07/27 02:45:35;;;;;;;5.63;1.52;;;;;;;;;;4995619;28;93394;-70
2022/07/27 02:48:01;;;;;;;6.65;1.67;;;;;;;;;;4994670;28;92999;-70
2022/07/27 02:50:28;;;;;;;6.05;1.75;;;;;;;;;;4995714;28;92815;-69
2022/07/27 02:52:54;;;;;;;8.70;1.60;;;;;;;;;;4995190;28;92415;-70
2022/07/27 02:55:21;;;;;;;4.70;1.42;;;;;;;;;;4994442;28;92883;-70
2022/07/27 02:57:47;;;;;;;3.50;1.77;;;;;;;;;;4989551;28;95830;-70
2022/07/27 03:00:14;;;;;;;9.55;1.70;;;;;;;;;;4994807;28;94124;-70
2022/07/27 03:02:41;;;;;;;2.50;1.42;;;;;;;;;;4994824;28;93231;-69
2022/07/27 03:05:08;;;;;;;5.43;1.52;;;;;;;;;;4995412;28;92459;-70
2022/07/27 03:07:35;;;;;;;6.88;1.60;;;;;;;;;;4994310;28;92895;-69
2022/07/27 03:10:02;;;;;;;5.95;1.80;;;;;;;;;;4995796;28;93393;-70
2022/07/27 03:12:29;;;;;;;1.83;1.25;;;;;;;;;;4995692;28;92561;-70
2022/07/27 03:14:55;;;;;;;6.22;1.73;;;;;;;;;;4995364;27;93050;-70
2022/07/27 03:17:24;;;;;;;1.35;1.25;;;;;;;;;;4995258;28;93417;-69
2022/07/27 03:19:50;;;;;;;5.60;1.48;;;;;;;;;;4990449;28;93715;-69
2022/07/27 03:22:17;;;;;;;3.45;1.35;;;;;;;;;;4992377;28;95869;-69
2022/07/27 03:24:43;;;;;;;5.15;1.40;;;;;;;;;;4994489;28;92525;-69
2022/07/27 03:27:09;;;;;;;3.33;1.27;;;;;;;;;;4995335;28;92935;-69
2022/07/27 03:29:36;;;;;;;3.55;1.25;;;;;;;;;;4993380;28;93299;-68
2022/07/27 03:32:02;;;;;;;4.72;1.60;;;;;;;;;;4994314;28;92458;-70
2022/07/27 03:34:28;;;;;;;3.40;1.60;;;;;;;;;;4994848;28;93149;-69
2022/07/27 03:36:55;;;;;;;6.38;1.38;;;;;;;;;;4993611;28;94098;-69
2022/07/27 03:39:21;;;;;;;5.55;1.38;;;;;;;;;;4996138;27;94572;-69
2022/07/27 03:41:48;;;;;;;7.50;1.48;;;;;;;;;;4997003;28;92996;-69
2022/07/27 03:44:14;;;;;;;9.27;1.60;;;;;;;;;;4993927;28;92456;-70
2022/07/27 03:46:40;;;;;;;2.13;1.23;;;;;;;;;;4992456;28;96421;-69
2022/07/27 03:49:07;;;;;;;4.85;1.40;;;;;;;;;;4994703;28;93295;-69
2022/07/27 03:51:40;;;;;;;3.95;1.45;;;;;;;;;;4993205;28;92470;-69
2022/07/27 03:54:07;;;;;;;4.57;1.38;;;;;;;;;;4994601;28;93235;-69
2022/07/27 03:56:33;;;;;;;3.35;1.33;;;;;;;;;;4993744;28;93321;-69
2022/07/27 03:59:00;;;;;;;3.85;1.02;;;;;;;;;;4994283;28;92547;-69
2022/07/27 04:01:26;;;;;;;2.22;1.40;;;;;;;;;;4994793;28;93116;-69
2022/07/27 04:03:52;;;;;;;2.55;1.38;;;;;;;;;;4996688;28;92435;-69
2022/07/27 04:06:19;;;;;;;13.10;1.70;;;;;;;;;;4994943;28;92437;-69
2022/07/27 04:08:45;;;;;;;3.45;1.55;;;;;;;;;;4994303;28;93302;-69
2022/07/27 04:11:13;;;;;;;1.35;1.20;;;;;;;;;;4991954;28;95392;-69
2022/07/27 04:13:45;;;;;;;3.70;1.55;;;;;;;;;;4993976;28;95407;-69
2022/07/27 04:16:12;;;;;;;3.42;1.40;;;;;;;;;;4989101;28;93242;-69
2022/07/27 04:18:39;;;;;;;7.00;1.48;;;;;;;;;;4997067;28;92487;-69
2022/07/27 04:21:05;;;;;;;4.68;1.50;;;;;;;;;;4997564;28;93133;-69
2022/07/27 04:23:32;;;;;;;3.85;1.40;;;;;;;;;;5000840;28;93450;-69
2022/07/27 04:26:03;;;;;;;5.53;1.60;;;;;;;;;;4997656;28;92900;-69
2022/07/27 04:28:31;;;;;;;3.22;1.50;;;;;;;;;;4998534;28;93454;-69
2022/07/27 04:30:57;;;;;;;4.85;1.30;;;;;;;;;;4998044;28;92423;-69
2022/07/27 04:33:25;;;;;;;2.83;1.60;;;;;;;;;;4997214;28;93080;-69
2022/07/27 04:35:51;;;;;;;5.53;1.65;;;;;;;;;;4995243;28;95198;-69
2022/07/27 04:38:18;;;;;;;5.15;1.50;;;;;;;;;;4997419;28;92356;-69
2022/07/27 04:40:44;;;;;;;6.57;1.63;;;;;;;;;;4996503;28;94492;-69
2022/07/27 04:43:10;;;;;;;2.05;1.20;;;;;;;;;;4997185;28;94355;-69
2022/07/27 04:45:37;;;;;;;3.35;1.60;;;;;;;;;;4999431;28;92457;-69
2022/07/27 04:48:05;;;;;;;2.38;1.63;;;;;;;;;;4996917;28;93008;-69
2022/07/27 04:50:31;;;;;;;2.38;1.90;;;;;;;;;;4997489;28;92549;-69
2022/07/27 04:52:59;;;;;;;7.55;2.00;;;;;;;;;;4996655;28;93924;-69
2022/07/27 04:55:25;;;;;;;3.78;1.67;;;;;;;;;;4996728;28;93361;-69
2022/07/27 04:57:51;;;;;;;8.00;2.13;;;;;;;;;;4997867;27;92381;-69
2022/07/27 05:00:18;;;;;;;5.30;2.15;;;;;;;;;;4994900;28;94770;-69
2022/07/27 05:02:44;;;;;;;5.72;1.75;;;;;;;;;;4997313;28;94650;-69
2022/07/27 05:05:11;;;;;;;4.93;1.80;;;;;;;;;;4996867;28;92324;-69
2022/07/27 05:07:37;;;;;;;3.28;1.70;;;;;;;;;;4999097;28;93002;-70
2022/07/27 05:10:04;;;;;;;2.88;1.75;;;;;;;;;;4996571;28;92453;-69
2022/07/27 05:12:30;;;;;;;2.28;1.67;;;;;;;;;;4997099;28;93300;-69
2022/07/27 05:14:56;;;;;;;4.25;1.95;;;;;;;;;;4995489;28;93581;-69
2022/07/27 05:17:23;;;;;;;3.65;1.83;;;;;;;;;;4997180;28;91844;-69
2022/07/27 05:19:49;;;;;;;5.57;1.77;;;;;;;;;;4996750;28;92473;-69
2022/07/27 05:22:15;;;;;;;3.63;2.30;;;;;;;;;;4995832;28;94161;-69
2022/07/27 05:24:42;;;;;;;3.55;2.00;;;;;;;;;;4995130;28;94867;-69
2022/07/27 05:27:08;;;;;;;9.25;2.17;;;;;;;;;;4997448;27;95587;-69
2022/07/27 05:29:35;;;;;;;16.25;2.17;;;;;;;;;;5000469;27;93316;-68
2022/07/27 05:32:01;;;;;;;5.57;2.00;;;;;;;;;;4996601;28;93340;-69
2022/07/27 05:34:28;;;;;;;2.78;1.98;;;;;;;;;;4996165;28;93366;-69
2022/07/27 05:36:54;;;;;;;5.47;2.22;;;;;;;;;;4995860;28;92701;-69
2022/07/27 05:39:21;;;;;;;6.97;2.10;;;;;;;;;;4996517;28;93298;-70
2022/07/27 05:41:48;;;;;;;3.55;2.00;;;;;;;;;;4996905;28;92789;-69
2022/07/27 05:44:15;;;;;;;6.68;2.00;;;;;;;;;;4996278;28;93150;-69
2022/07/27 05:46:42;;;;;;;5.03;1.75;;;;;;;;;;4995949;28;93282;-70
2022/07/27 05:49:09;;;;;;;3.33;1.70;;;;;;;;;;4993618;28;95693;-69
2022/07/27 05:51:37;;;;;;;10.30;2.17;;;;;;;;;;4999492;28;92383;-70
2022/07/27 05:54:03;;;;;;;4.85;2.70;;;;;;;;;;4997164;28;94141;-69
2022/07/27 05:56:30;;;;;;;3.30;2.00;;;;;;;;;;4995851;28;92979;-69
2022/07/27 05:58:56;;;;;;;6.18;2.20;;;;;;;;;;4996542;28;92931;-69
2022/07/27 06:01:22;;;;;;;3.90;2.05;;;;;;;;;;4994892;28;94271;-69
2022/07/27 06:03:49;;;;;;;4.07;1.85;;;;;;;;;;4995498;28;92449;-69
2022/07/27 06:09:00;;;;;;;4.97;1.90;;;;;;;;;;4990902;28;93153;-69
2022/07/27 06:11:27;;;;;;;4.28;2.22;;;;;;;;;;4995507;28;92420;-69
2022/07/27 06:13:54;;;;;;;3.20;1.95;;;;;;;;;;4997196;28;96056;-69
2022/07/27 06:16:21;;;;;;;4.03;2.22;;;;;;;;;;4995407;28;92551;-69
2022/07/27 06:18:48;;;;;;;8.13;2.08;;;;;;;;;;4995079;28;93100;-69
2022/07/27 06:21:14;;;;;;;9.23;2.00;;;;;;;;;;4995879;28;94220;-69
2022/07/27 06:23:41;;;;;;;6.68;1.80;;;;;;;;;;4996008;28;92498;-69
2022/07/27 06:26:07;;;;;;;7.88;1.85;;;;;;;;;;4995120;28;93365;-69
2022/07/27 06:28:34;;;;;;;3.80;1.50;;;;;;;;;;4995313;28;94183;-69
2022/07/27 06:31:00;;;;;;;4.95;1.80;;;;;;;;;;4996816;28;91717;-69
2022/07/27 06:33:27;;;;;;;3.05;1.60;;;;;;;;;;4997734;28;93267;-70
2022/07/27 06:35:55;;;;;;;7.80;1.65;;;;;;;;;;4995755;28;92573;-69
2022/07/27 06:38:23;;;;;;;5.72;1.40;;;;;;;;;;4992718;28;95228;-70
2022/07/27 06:40:53;;;;;;;3.33;1.73;;;;;;;;;;4995403;28;92368;-69
2022/07/27 06:43:26;;;;;;;4.38;1.20;;;;;;;;;;4995559;28;92593;-69
2022/07/27 06:45:53;;;;;;;2.15;1.40;;;;;;;;;;4987319;28;92925;-69
2022/07/27 06:48:20;;;;;;;2.58;1.30;;;;;;;;;;4995506;28;93258;-69
2022/07/27 06:50:47;;;;;;;5.05;1.55;;;;;;;;;;4995165;28;92880;-69
2022/07/27 06:53:13;;;;;;;3.28;1.30;;;;;;;;;;4994641;28;93156;-70
2022/07/27 06:55:46;;;;;;;2.58;1.10;;;;;;;;;;4997206;28;93517;-70
2022/07/27 06:58:12;;;;;;;6.40;1.50;;;;;;;;;;4995251;28;93816;-70
2022/07/27 07:00:39;;;;;;;2.45;1.25;;;;;;;;;;4993556;28;93260;-70
2022/07/27 07:03:05;;;;;;;4.07;1.45;;;;;;;;;;4993379;28;97220;-70
2022/07/27 07:05:33;;;;;;;3.13;1.60;;;;;;;;;;4994826;28;95416;-70
2022/07/27 07:08:04;;;;;;;5.60;1.70;;;;;;;;;;4994193;28;93231;-70
2022/07/27 07:10:30;;;;;;;3.33;1.33;;;;;;;;;;4995030;28;92368;-70
2022/07/27 07:13:02;;;;;;;11.13;1.65;;;;;;;;;;4994633;28;92940;-70
2022/07/27 07:15:28;;;;;;;2.53;1.35;;;;;;;;;;4994688;28;93575;-70
2022/07/27 07:17:55;;;;;;;6.90;1.42;;;;;;;;;;4997830;28;92568;-70
2022/07/27 07:20:21;;;;;;;13.13;1.70;;;;;;;;;;4994445;28;91841;-70
2022/07/27 07:22:48;;;;;;;4.25;1.30;;;;;;;;;;4994668;28;92424;-70
2022/07/27 07:25:14;;;;;;;3.20;1.30;;;;;;;;;;4995002;28;93049;-70
2022/07/27 07:27:40;;;;;;;2.85;1.10;;;;;;;;;;4991912;28;95689;-70
2022/07/27 07:30:07;;;;;;;3.70;1.60;;;;;;;;;;4994722;28;92411;-70
2022/07/27 07:32:33;;;;;;;3.97;1.23;;;;;;;;;;4995439;28;93032;-70
2022/07/27 07:35:02;;;;;;;3.60;1.33;;;;;;;;;;4994411;28;94536;-70
2022/07/27 07:37:31;;;;;;;3.60;1.35;;;;;;;;;;4994760;28;92468;-70
2022/07/27 07:39:59;;;;;;;3.00;1.30;;;;;;;;;;4997060;28;93914;-70
2022/07/27 07:42:51;;;;;;;3.22;1.20;;;;;;;;;;4993204;28;92469;-70
2022/07/27 07:45:18;;;;;;;5.80;1.55;;;;;;;;;;4995376;28;93864;-70
2022/07/27 07:47:45;;;;;;;4.03;1.55;;;;;;;;;;4993737;28;92987;-70
2022/07/27 07:50:12;;;;;;;4.95;1.55;;;;;;;;;;4995179;28;93661;-70
2022/07/27 07:52:39;;;;;;;3.00;1.40;;;;;;;;;;4996578;28;94788;-70
2022/07/27 07:55:06;;;;;;;4.25;1.42;;;;;;;;;;4997952;28;94133;-70
2022/07/27 07:57:32;;;;;;;3.55;1.27;;;;;;;;;;4997532;28;92434;-69
2022/07/27 07:59:58;;;;;;;7.88;1.52;;;;;;;;;;4997884;28;93124;-69
2022/07/27 08:02:25;;;;;;;4.63;1.25;;;;;;;;;;5001071;28;94049;-69
2022/07/27 08:04:54;;;;;;;5.50;1.90;;;;;;;;;;4997303;28;94421;-69
2022/07/27 08:07:20;;;;;;;4.05;1.10;;;;;;;;;;4997528;28;94172;-70
2022/07/27 08:09:48;;;;;;;2.92;1.48;;;;;;;;;;4997746;28;91839;-70
2022/07/27 08:12:14;;;;;;;2.92;1.40;;;;;;;;;;4990128;28;93339;-70
2022/07/27 08:14:41;;;;;;;4.07;1.35;;;;;;;;;;4997723;28;94285;-70
2022/07/27 08:17:07;;;;;;;3.17;1.05;;;;;;;;;;4995503;28;95355;-69
2022/07/27 08:19:33;;;;;;;3.17;1.20;;;;;;;;;;4998637;28;94185;-70
2022/07/27 08:22:05;;;;;;;3.25;1.15;;;;;;;;;;4997728;28;94112;-70
2022/07/27 08:24:31;;;;;;;2.65;1.08;;;;;;;;;;5000183;28;92505;-70
2022/07/27 08:26:58;;;;;;;2.42;1.10;;;;;;;;;;4996588;28;94188;-70
2022/07/27 08:29:24;;;;;;;3.80;1.40;;;;;;;;;;4997632;28;92440;-70
2022/07/27 08:32:02;;;;;;;3.85;1.08;;;;;;;;;;4997012;28;93089;-70
2022/07/27 08:34:31;;;;;;;3.65;1.40;;;;;;;;;;4997873;28;92523;-70
2022/07/27 08:36:57;;;;;;;4.18;1.17;;;;;;;;;;4997098;28;92406;-70
2022/07/27 08:39:24;;;;;;;2.15;1.10;;;;;;;;;;4996762;28;94092;-70
2022/07/27 08:42:11;;;;;;;2.58;1.00;;;;;;;;;;4995602;28;96522;-70
2022/07/27 08:44:38;;;;;;;2.58;1.20;;;;;;;;;;5000364;28;92563;-70
2022/07/27 08:47:05;;;;;;;1.55;1.13;;;;;;;;;;4995716;28;93733;-70
2022/07/27 08:49:32;;;;;;;3.63;1.20;;;;;;;;;;4996262;28;92533;-70
2022/07/27 08:52:10;;;;;;;3.33;1.40;;;;;;;;;;4994172;28;93174;-70
2022/07/27 08:54:37;;;;;;;2.30;1.10;;;;;;;;;;4995959;28;93280;-70
2022/07/27 08:57:06;;;;;;;1.73;1.00;;;;;;;;;;4996937;28;92804;-69
2022/07/27 08:59:33;;;;;;;5.20;1.20;;;;;;;;;;4995382;28;92922;-70
2022/07/27 09:01:59;;;;;;;4.50;1.48;;;;;;;;;;4995559;28;93498;-69
2022/07/27 09:04:29;;;;;;;3.42;1.30;;;;;;;;;;4996446;28;92501;-70
2022/07/27 09:06:56;;;;;;;2.25;1.35;;;;;;;;;;4996004;28;94815;-70
2022/07/27 09:09:24;;;;;;;3.20;1.08;;;;;;;;;;4996504;28;92507;-70
2022/07/27 09:12:18;;;;;;;6.03;1.10;;;;;;;;;;4996401;28;94204;-71
2022/07/27 09:14:46;;;;;;;4.88;1.35;;;;;;;;;;4991924;28;93218;-70
2022/07/27 09:17:21;;;;;;;9.70;1.25;;;;;;;;;;4994589;28;92480;-70
2022/07/27 09:20:15;;;;;;;1.92;1.02;;;;;;;;;;4994974;28;92749;-70
2022/07/27 09:22:51;;;;;;;1.55;0.98;;;;;;;;;;4989939;28;93462;-71
2022/07/27 09:25:22;;;;;;;2.63;1.27;;;;;;;;;;4996440;28;91720;-69
2022/07/27 09:28:08;;;;;;;9.02;1.20;;;;;;;;;;4995608;28;93168;-68
2022/07/27 09:30:39;;;;;;;2.10;1.02;;;;;;;;;;4998824;28;94465;-69
2022/07/27 09:33:06;;;;;;;3.60;1.48;;;;;;;;;;4994432;28;94735;-69
2022/07/27 09:35:33;;;;;;;2.42;0.90;;;;;;;;;;4994336;28;94118;-69
2022/07/27 09:38:15;;;;;;;2.10;1.10;;;;;;;;;;4995567;28;92456;-70
2022/07/27 09:40:42;;;;;;;4.53;1.27;;;;;;;;;;4995497;28;92386;-70
2022/07/27 09:43:11;;;;;;;2.97;1.48;;;;;;;;;;4994540;28;92911;-70
2022/07/27 09:46:04;;;;;;;5.98;1.30;;;;;;;;;;4980493;28;1134948;-70
2022/07/27 09:48:33;;;;;;;4.35;1.20;;;;;;;;;;4995845;28;92428;-70
2022/07/27 09:51:03;;;;;;;4.47;1.35;;;;;;;;;;4996870;28;93051;-69
2022/07/27 09:53:50;;;;;;;3.33;1.33;;;;;;;;;;4991451;28;93276;-69
2022/07/27 09:56:16;;;;;;;8.38;1.75;;;;;;;;;;4995699;28;94014;-69
2022/07/27 09:58:43;;;;;;;1.73;0.90;;;;;;;;;;4993910;28;96077;-69
2022/07/27 10:01:11;;;;;;;3.45;1.02;;;;;;;;;;4995714;28;93537;-69
2022/07/27 10:03:39;;;;;;;3.58;1.20;;;;;;;;;;4994998;28;92939;-68
2022/07/27 10:06:06;;;;;;;6.97;1.00;;;;;;;;;;4995744;28;93182;-69
2022/07/27 10:08:34;;;;;;;3.97;1.02;;;;;;;;;;4995861;28;92452;-69
2022/07/27 10:11:00;;;;;;;4.95;1.33;;;;;;;;;;4995212;28;92850;-69
2022/07/27 10:13:29;;;;;;;3.00;1.13;;;;;;;;;;4993417;28;93637;-70
2022/07/27 10:15:57;;;;;;;5.15;1.15;;;;;;;;;;4999150;28;91692;-69
2022/07/27 10:18:46;;;;;;;4.65;1.40;;;;;;;;;;4995160;28;92779;-69
2022/07/27 10:21:22;;;;;;;3.28;1.35;;;;;;;;;;4992016;28;92511;-70
2022/07/27 10:23:59;;;;;;;5.80;1.73;;;;;;;;;;4993118;28;94940;-69
2022/07/27 10:26:34;;;;;;;4.07;1.58;;;;;;;;;;4995009;28;93057;-69
2022/07/27 10:29:05;;;;;;;5.80;1.48;;;;;;;;;;4988963;28;92505;-69
2022/07/27 10:31:36;;;;;;;2.90;1.30;;;;;;;;;;4994639;28;93012;-69
2022/07/27 10:34:04;;;;;;;4.77;1.10;;;;;;;;;;4995907;28;93135;-69
2022/07/27 10:36:31;;;;;;;4.18;1.17;;;;;;;;;;4998909;28;92546;-69
2022/07/27 10:38:58;;;;;;;8.45;1.73;;;;;;;;;;4986363;28;94167;-69
2022/07/27 10:41:26;;;;;;;2.92;1.20;;;;;;;;;;4996210;28;92898;-70
2022/07/27 10:44:11;;;;;;;8.05;1.75;;;;;;;;;;4995539;28;92488;-70
2022/07/27 10:46:41;;;;;;;2.33;1.20;;;;;;;;;;4994888;27;92358;-70
2022/07/27 10:49:15;;;;;;;2.30;1.30;;;;;;;;;;4993842;28;97588;-70
2022/07/27 10:51:42;;;;;;;4.35;1.15;;;;;;;;;;4993655;28;95326;-70
2022/07/27 10:54:22;;;;;;;2.78;1.17;;;;;;;;;;4994694;28;93279;-70
2022/07/27 10:56:49;;;;;;;2.17;1.10;;;;;;;;;;4995359;28;92456;-70
2022/07/27 10:59:34;;;;;;;2.70;0.88;;;;;;;;;;4997230;28;93356;-70
2022/07/27 11:02:36;;;;;;;2.03;0.90;;;;;;;;;;4990135;28;92654;-70
2022/07/27 11:05:03;;;;;;;2.70;1.10;;;;;;;;;;4994796;28;93024;-70
2022/07/27 11:07:29;;;;;;;2.83;1.23;;;;;;;;;;4994376;28;92753;-70
2022/07/27 11:10:11;;;;;;;3.67;1.65;;;;;;;;;;4995564;28;92421;-70
2022/07/27 11:12:38;;;;;;;3.70;1.13;;;;;;;;;;4993973;28;93033;-70
2022/07/27 11:15:05;;;;;;;4.05;1.25;;;;;;;;;;4993209;28;95834;-70
2022/07/27 11:17:31;;;;;;;4.10;1.38;;;;;;;;;;4995820;28;92497;-70
2022/07/27 11:20:21;;;;;;;4.68;1.40;;;;;;;;;;4987719;28;93028;-70
2022/07/27 11:22:47;;;;;;;4.53;1.13;;;;;;;;;;4997169;28;93421;-70
2022/07/27 11:25:35;;;;;;;1.92;1.17;;;;;;;;;;4994347;28;93619;-69
2022/07/27 11:28:05;;;;;;;3.28;0.80;;;;;;;;;;4993971;28;93203;-69
2022/07/27 11:30:32;;;;;;;2.45;0.70;;;;;;;;;;4995033;28;92488;-69
2022/07/27 11:33:02;;;;;;;1.80;0.70;;;;;;;;;;4995960;27;93068;-69
2022/07/27 11:35:28;;;;;;;1.42;0.75;;;;;;;;;;4994363;28;93482;-69
2022/07/27 11:38:02;;;;;;;1.73;0.80;;;;;;;;;;4994960;28;94129;-69
2022/07/27 11:40:40;;;;;;;2.65;0.82;;;;;;;;;;4993618;28;94713;-69
2022/07/27 11:43:30;;;;;;;2.10;1.10;;;;;;;;;;4994742;28;94339;-70
2022/07/27 11:45:59;;;;;;;;;;;;;;;;;;4997649;28;92560;-70
2022/07/27 11:48:25;;;;;;;1.27;0.90;;;;;;;;;;4994420;28;123472;-69
2022/07/27 11:51:09;;;;;;;6.78;1.02;;;;;;;;;;4994637;28;92429;-69
2022/07/27 11:53:35;;;;;;;2.50;1.00;;;;;;;;;;4994277;28;93007;-69
2022/07/27 11:56:02;;;;;;;2.40;1.00;;;;;;;;;;4993712;28;93185;-69
2022/07/27 11:58:28;;;;;;;3.55;0.85;;;;;;;;;;4994871;28;91935;-69
2022/07/27 12:00:55;;;;;;;2.60;0.98;;;;;;;;;;4994282;28;93230;-69
2022/07/27 12:03:28;;;;;;;2.53;0.80;;;;;;;;;;4985402;28;94098;-69
2022/07/27 12:06:12;;;;;;;5.30;1.00;;;;;;;;;;4992462;28;94821;-69
2022/07/27 12:08:39;;;;;;;3.78;0.70;;;;;;;;;;4996828;28;95922;-69
2022/07/27 12:11:06;;;;;;;5.60;0.95;;;;;;;;;;4994030;28;92491;-69
2022/07/27 12:13:33;;;;;;;4.10;1.02;;;;;;;;;;4993683;28;92737;-69
2022/07/27 12:16:00;;;;;;;4.95;1.25;;;;;;;;;;4993268;28;95946;-68
2022/07/27 12:18:48;;;;;;;4.72;1.73;;;;;;;;;;4994690;28;92651;-69
2022/07/27 12:21:18;;;;;;;1.90;0.88;;;;;;;;;;4995414;28;93203;-70
2022/07/27 12:23:50;;;;;;;3.38;0.95;;;;;;;;;;4994333;28;93728;-70
2022/07/27 12:26:18;;;;;;;2.03;1.02;;;;;;;;;;4994408;28;92275;-70
2022/07/27 12:28:45;;;;;;;1.73;1.05;;;;;;;;;;4994528;28;93708;-70
2022/07/27 12:31:15;;;;;;;1.58;0.93;;;;;;;;;;4994347;28;95798;-69
2022/07/27 12:33:45;;;;;;;5.70;0.90;;;;;;;;;;4993779;28;95450;-69
2022/07/27 12:36:23;;;;;;;1.23;0.60;;;;;;;;;;4994359;28;94125;-69
2022/07/27 12:38:49;;;;;;;2.53;1.00;;;;;;;;;;4996421;28;93470;-69
2022/07/27 12:41:23;;;;;;;3.78;1.20;;;;;;;;;;4995938;28;93080;-70
2022/07/27 12:44:03;;;;;;;1.33;1.00;;;;;;;;;;4996577;28;93428;-70
2022/07/27 12:46:29;;;;;;;1.45;1.20;;;;;;;;;;4997294;28;93040;-70
2022/07/27 12:48:56;;;;;;;1.67;0.85;;;;;;;;;;4997663;28;93049;-70
2022/07/27 12:51:22;;;;;;;5.63;1.20;;;;;;;;;;4999635;28;94028;-69
2022/07/27 12:53:49;;;;;;;5.10;1.13;;;;;;;;;;4996946;28;92306;-70
2022/07/27 12:56:15;;;;;;;3.30;0.90;;;;;;;;;;4994763;28;96817;-70
2022/07/27 12:58:56;;;;;;;1.88;1.02;;;;;;;;;;4992067;28;92825;-70
2022/07/27 13:01:22;;;;;;;4.55;1.20;;;;;;;;;;4989744;28;93713;-70
2022/07/27 13:03:49;;;;;;;2.90;1.02;;;;;;;;;;4997220;28;94031;-70
2022/07/27 13:06:15;;;;;;;1.10;0.77;;;;;;;;;;4995788;28;93268;-70
2022/07/27 13:08:44;;;;;;;4.18;1.10;;;;;;;;;;4996319;28;93026;-70
2022/07/27 13:11:10;;;;;;;2.40;1.05;;;;;;;;;;4997058;28;94204;-70
2022/07/27 13:13:39;;;;;;;2.17;0.70;;;;;;;;;;4999572;28;91730;-70
2022/07/27 13:16:05;;;;;;;2.55;0.90;;;;;;;;;;4996662;28;93442;-70
2022/07/27 13:18:31;;;;;;;2.10;0.85;;;;;;;;;;4997251;28;92443;-70
2022/07/27 13:20:58;;;;;;;2.60;1.02;;;;;;;;;;4994805;28;94922;-70
2022/07/27 13:23:24;;;;;;;2.22;1.13;;;;;;;;;;4988168;28;93288;-70
2022/07/27 13:25:51;;;;;;;5.78;1.27;;;;;;;;;;4996449;28;92506;-70
2022/07/27 13:28:19;;;;;;;3.28;0.75;;;;;;;;;;4994340;28;93772;-70
2022/07/27 13:30:45;;;;;;;4.65;0.80;;;;;;;;;;4996601;28;94184;-70
2022/07/27 13:33:11;;;;;;;6.43;1.20;;;;;;;;;;4995699;28;92493;-70
2022/07/27 13:35:38;;;;;;;1.15;0.90;;;;;;;;;;4998971;28;93161;-70
2022/07/27 13:38:04;;;;;;;2.05;0.93;;;;;;;;;;4997084;28;91718;-70
2022/07/27 13:40:30;;;;;;;2.88;1.10;;;;;;;;;;4995991;28;92403;-70
2022/07/27 13:42:57;;;;;;;1.30;0.82;;;;;;;;;;4995854;28;93283;-69
2022/07/27 13:45:23;;;;;;;1.35;0.77;;;;;;;;;;4994527;28;94940;-70
2022/07/27 13:47:50;;;;;;;3.72;0.90;;;;;;;;;;4994055;28;96494;-70
2022/07/27 13:50:16;;;;;;;7.68;1.35;;;;;;;;;;4995814;28;94625;-70
2022/07/27 13:52:47;;;;;;;8.50;0.95;;;;;;;;;;4996129;28;92408;-70
2022/07/27 13:55:14;;;;;;;1.80;0.73;;;;;;;;;;4995482;28;93301;-70
2022/07/27 13:57:42;;;;;;;3.47;0.90;;;;;;;;;;4990597;28;93505;-70
2022/07/27 14:00:09;;;;;;;1.63;0.98;;;;;;;;;;4996254;28;94121;-70
2022/07/27 14:02:35;;;;;;;11.50;0.82;;;;;;;;;;4995210;28;92617;-69
2022/07/27 14:05:02;;;;;;;6.32;0.85;;;;;;;;;;4995741;28;92443;-70
2022/07/27 14:07:31;;;;;;;3.25;1.10;;;;;;;;;;4996065;28;93827;-70
2022/07/27 14:12:42;;;;;;;1.05;0.93;;;;;;;;;;4987950;28;92717;-70
2022/07/27 14:15:09;;;;;;;0.63;0.63;;;;;;;;;;4996108;28;93151;-70
2022/07/27 14:17:36;;;;;;;2.35;0.80;;;;;;;;;;4994274;28;93572;-70
2022/07/27 14:20:03;;;;;;;2.75;0.80;;;;;;;;;;4998898;28;92545;-70
2022/07/27 14:22:29;;;;;;;1.20;0.70;;;;;;;;;;4994873;28;93568;-70
2022/07/27 14:24:56;;;;;;;0.80;0.70;;;;;;;;;;4995446;28;92564;-69
2022/07/27 14:27:22;;;;;;;4.63;0.85;;;;;;;;;;4996264;28;93101;-70
2022/07/27 14:29:48;;;;;;;0.65;0.65;;;;;;;;;;4994212;28;93277;-69
2022/07/27 14:32:15;;;;;;;4.47;1.00;;;;;;;;;;4996160;28;93083;-70
2022/07/27 14:34:42;;;;;;;0.60;0.60;;;;;;;;;;4994184;28;94990;-70
2022/07/27 14:37:09;;;;;;;2.15;0.73;;;;;;;;;;4995489;28;93181;-69
2022/07/27 14:39:35;;;;;;;2.47;0.70;;;;;;;;;;4995131;28;92440;-70
2022/07/27 14:42:02;;;;;;;1.00;0.60;;;;;;;;;;4998827;28;93064;-70
2022/07/27 14:44:29;;;;;;;1.85;0.70;;;;;;;;;;4994723;28;92492;-70
2022/07/27 14:46:56;;;;;;;1.55;0.90;;;;;;;;;;4995213;28;93119;-69
2022/07/27 14:49:24;;;;;;;1.42;0.70;;;;;;;;;;4995836;28;93409;-70
2022/07/27 14:51:52;;;;;;;3.33;0.88;;;;;;;;;;4995862;27;91929;-69
2022/07/27 14:54:18;;;;;;;2.67;0.68;;;;;;;;;;4995681;28;92489;-69
2022/07/27 14:56:44;;;;;;;2.83;1.10;;;;;;;;;;4994582;28;92496;-70
2022/07/27 14:59:11;;;;;;;3.90;0.88;;;;;;;;;;4992732;28;94935;-69
2022/07/27 15:01:39;;;;;;;1.40;0.70;;;;;;;;;;4997762;28;96325;-69